Time;durP1;ratioP1;P1;durP2;ratioP2;P2;SDS_P1;SDS_P2;PMS_P1;PMS_P2;Temp;Humidity;BMP_temperature;BMP_pressure;BME280_temperature;BME280_humidity;BME280_pressure;Samples;Min_cycle;Max_cycle;Signal;HPM_P1;HPM_P2
2023/03/23 00:00:47;;;;;;;2.70;2.50;;;13.20;99.90;;;;;;5138245;27;20118;-59
2023/03/23 00:03:13;;;;;;;4.55;2.65;;;13.20;99.90;;;;;;5138104;27;20395;-60
2023/03/23 00:05:41;;;;;;;4.55;2.70;;;13.20;99.90;;;;;;5137324;27;20027;-60
2023/03/23 00:08:12;;;;;;;3.45;2.80;;;13.20;99.90;;;;;;5138295;27;20023;-59
2023/03/23 00:10:38;;;;;;;4.55;2.90;;;13.20;99.90;;;;;;5138279;27;20277;-59
2023/03/23 00:13:04;;;;;;;3.83;2.88;;;13.30;99.90;;;;;;5138582;27;20050;-59
2023/03/23 00:15:33;;;;;;;3.90;3.00;;;13.20;99.90;;;;;;5137293;27;20031;-59
2023/03/23 00:18:04;;;;;;;3.83;2.97;;;13.20;99.90;;;;;;5137971;27;20031;-59
2023/03/23 00:20:37;;;;;;;4.27;3.43;;;13.20;99.90;;;;;;5137907;27;20411;-62
2023/03/23 00:23:03;;;;;;;3.70;3.05;;;13.20;99.90;;;;;;5137955;27;20269;-59
2023/03/23 00:25:29;;;;;;;3.33;2.78;;;13.20;99.90;;;;;;5137896;27;20027;-59
2023/03/23 00:27:56;;;;;;;4.45;3.05;;;13.20;99.90;;;;;;5137940;28;20080;-59
2023/03/23 00:30:22;;;;;;;4.18;3.15;;;13.20;99.90;;;;;;5137822;27;20054;-58
2023/03/23 00:32:48;;;;;;;4.45;3.10;;;13.20;99.90;;;;;;5137860;28;20325;-59
2023/03/23 00:35:14;;;;;;;4.10;3.40;;;13.20;99.90;;;;;;5136937;28;20031;-60
2023/03/23 00:37:40;;;;;;;5.40;3.38;;;13.20;99.90;;;;;;5137093;28;20299;-59
2023/03/23 00:40:09;;;;;;;4.78;3.45;;;13.20;99.90;;;;;;5136734;28;20356;-59
2023/03/23 00:42:37;;;;;;;3.63;3.28;;;13.20;99.90;;;;;;5120598;28;20055;-60
2023/03/23 00:45:10;;;;;;;6.05;3.70;;;13.20;99.90;;;;;;5137737;27;20039;-59
2023/03/23 00:47:41;;;;;;;4.43;3.47;;;13.20;99.90;;;;;;5137750;28;20051;-59
2023/03/23 00:50:08;;;;;;;3.95;3.10;;;13.20;99.90;;;;;;5137038;28;20329;-59
2023/03/23 00:52:34;;;;;;;4.63;3.13;;;13.10;99.90;;;;;;5137188;28;20046;-59
2023/03/23 00:55:00;;;;;;;4.43;3.60;;;13.20;99.90;;;;;;5137564;27;20277;-59
2023/03/23 00:57:26;;;;;;;3.50;3.20;;;13.20;99.90;;;;;;5137875;28;20119;-59
2023/03/23 00:59:52;;;;;;;3.80;3.42;;;13.20;99.90;;;;;;5137722;28;20030;-59
2023/03/23 01:02:19;;;;;;;3.38;2.88;;;13.20;99.90;;;;;;5137532;28;20396;-59
2023/03/23 01:04:46;;;;;;;5.60;3.33;;;13.20;99.90;;;;;;5136754;28;20046;-63
2023/03/23 01:07:17;;;;;;;3.70;3.30;;;13.20;99.90;;;;;;5137587;27;20031;-59
2023/03/23 01:09:44;;;;;;;4.05;3.33;;;13.20;99.90;;;;;;5120733;28;20083;-60
2023/03/23 01:12:11;;;;;;;3.88;3.40;;;13.20;99.90;;;;;;5120126;28;20031;-59
2023/03/23 01:14:38;;;;;;;6.07;3.72;;;13.20;99.90;;;;;;5137607;27;20103;-59
2023/03/23 01:17:04;;;;;;;4.93;3.40;;;13.20;99.90;;;;;;5137997;28;20110;-60
2023/03/23 01:19:30;;;;;;;4.85;2.88;;;13.20;99.90;;;;;;5119664;28;20098;-59
2023/03/23 01:21:56;;;;;;;5.78;3.50;;;13.20;99.90;;;;;;5136796;28;20318;-59
2023/03/23 01:24:22;;;;;;;3.22;2.92;;;13.20;99.90;;;;;;5119451;28;20412;-58
2023/03/23 01:26:49;;;;;;;4.90;3.20;;;13.30;99.90;;;;;;5136711;28;20026;-59
2023/03/23 01:29:15;;;;;;;4.63;3.20;;;13.30;99.90;;;;;;5137265;27;20027;-60
2023/03/23 01:31:42;;;;;;;3.40;3.03;;;13.30;99.90;;;;;;5137319;27;20058;-59
2023/03/23 01:34:10;;;;;;;3.75;2.95;;;13.30;99.90;;;;;;5139618;27;20019;-59
2023/03/23 01:36:36;;;;;;;3.80;2.50;;;13.20;99.90;;;;;;5140110;27;20058;-59
2023/03/23 01:39:04;;;;;;;3.75;2.50;;;13.30;99.90;;;;;;5123008;27;20027;-59
2023/03/23 01:41:33;;;;;;;4.47;2.67;;;13.20;99.90;;;;;;5140074;27;20039;-60
2023/03/23 01:44:17;;;;;;;3.47;2.58;;;13.20;99.90;;;;;;5123383;27;20102;-59
2023/03/23 01:46:56;;;;;;;5.03;2.88;;;13.20;99.90;;;;;;5140011;27;20031;-60
2023/03/23 01:49:27;;;;;;;3.55;2.70;;;13.30;99.90;;;;;;5140681;27;20035;-60
2023/03/23 01:51:58;;;;;;;4.43;3.15;;;13.20;99.90;;;;;;5140780;27;20403;-59
2023/03/23 01:54:26;;;;;;;3.65;2.60;;;13.30;99.90;;;;;;5122893;27;20035;-59
2023/03/23 01:57:19;;;;;;;2.90;2.60;;;13.20;99.90;;;;;;5122714;27;20076;-59
2023/03/23 01:59:49;;;;;;;2.65;2.42;;;13.20;99.90;;;;;;5129225;27;20315;-60
2023/03/23 02:02:38;;;;;;;4.50;2.80;;;13.20;99.90;;;;;;5130094;27;20445;-60
2023/03/23 02:05:11;;;;;;;2.85;2.40;;;13.20;99.90;;;;;;5122589;27;20093;-59
2023/03/23 02:07:37;;;;;;;4.25;2.63;;;13.20;99.90;;;;;;5139628;27;20118;-59
2023/03/23 02:10:05;;;;;;;3.90;2.63;;;13.20;99.90;;;;;;5139468;27;20039;-60
2023/03/23 02:12:33;;;;;;;3.30;2.40;;;13.20;99.90;;;;;;5106088;27;20355;-60
2023/03/23 02:15:00;;;;;;;3.97;2.53;;;13.20;99.90;;;;;;5139375;27;20094;-60
2023/03/23 02:17:49;;;;;;;2.65;2.40;;;13.20;99.90;;;;;;5089158;27;20034;-60
2023/03/23 02:20:38;;;;;;;3.00;2.30;;;13.20;99.90;;;;;;5139489;27;20088;-60
2023/03/23 02:23:28;;;;;;;3.80;2.40;;;13.20;99.90;;;;;;5139362;27;20031;-59
2023/03/23 02:25:54;;;;;;;4.57;2.85;;;13.20;99.90;;;;;;5139374;27;20042;-59
2023/03/23 02:28:45;;;;;;;4.53;2.40;;;13.20;99.90;;;;;;5139933;27;20031;-59
2023/03/23 02:31:21;;;;;;;3.03;2.47;;;13.20;99.90;;;;;;5139120;27;20041;-60
2023/03/23 02:34:04;;;;;;;2.88;2.13;;;13.20;99.90;;;;;;5139125;27;20039;-58
2023/03/23 02:36:47;;;;;;;3.30;2.25;;;13.20;99.90;;;;;;5140443;27;20062;-59
2023/03/23 02:39:23;;;;;;;2.42;1.92;;;13.20;99.90;;;;;;5139183;27;20028;-58
2023/03/23 02:41:55;;;;;;;4.07;2.30;;;13.20;99.90;;;;;;5139576;27;20046;-59
2023/03/23 02:44:23;;;;;;;3.22;2.08;;;13.20;99.90;;;;;;5120724;27;20311;-59
2023/03/23 02:46:53;;;;;;;3.72;1.63;;;13.10;99.90;;;;;;5138800;27;20126;-59
2023/03/23 02:49:20;;;;;;;3.50;1.77;;;13.10;99.90;;;;;;5138754;27;20024;-60
2023/03/23 02:51:48;;;;;;;3.75;1.75;;;13.10;99.90;;;;;;5138733;27;20035;-59
2023/03/23 02:54:16;;;;;;;3.30;1.60;;;13.10;99.90;;;;;;5138727;27;20295;-61
2023/03/23 02:56:43;;;;;;;3.15;1.55;;;13.10;99.90;;;;;;5121606;27;20291;-59
2023/03/23 02:59:17;;;;;;;2.40;1.35;;;13.10;99.90;;;;;;5139129;27;20023;-59
2023/03/23 03:01:43;;;;;;;3.95;1.38;;;13.10;99.90;;;;;;5121541;27;20042;-59
2023/03/23 03:04:16;;;;;;;4.07;1.38;;;13.00;99.90;;;;;;5139262;27;20099;-59
2023/03/23 03:06:48;;;;;;;4.47;1.42;;;13.00;99.90;;;;;;5138518;27;20023;-59
2023/03/23 03:09:25;;;;;;;3.65;1.35;;;13.00;99.90;;;;;;5138435;27;20027;-61
2023/03/23 03:11:58;;;;;;;6.40;1.55;;;13.00;99.90;;;;;;5139065;27;20019;-59
2023/03/23 03:14:34;;;;;;;4.22;1.30;;;13.00;99.90;;;;;;5138192;27;20105;-59
2023/03/23 03:17:25;;;;;;;4.60;1.40;;;13.00;99.90;;;;;;5138575;27;20027;-59
2023/03/23 03:19:57;;;;;;;4.05;1.20;;;13.00;99.90;;;;;;5121138;27;20026;-59
2023/03/23 03:22:30;;;;;;;5.60;1.30;;;13.00;99.90;;;;;;5138201;27;20088;-60
2023/03/23 03:24:59;;;;;;;4.13;1.10;;;13.10;99.90;;;;;;5121082;27;20035;-60
2023/03/23 03:27:26;;;;;;;5.38;1.00;;;13.10;99.90;;;;;;5138042;27;20034;-58
2023/03/23 03:30:17;;;;;;;4.47;1.20;;;13.10;99.90;;;;;;5137760;27;20039;-59
2023/03/23 03:32:50;;;;;;;3.28;1.13;;;13.10;99.70;;;;;;5138069;27;20349;-58
2023/03/23 03:35:17;;;;;;;;;;;13.10;99.10;;;;;;5121232;27;20081;-58
2023/03/23 03:37:43;;;;;;;2.22;1.05;;;13.10;99.00;;;;;;5137979;27;19907;-58
2023/03/23 03:40:12;;;;;;;7.07;1.20;;;13.10;99.20;;;;;;5137640;27;20082;-59
2023/03/23 03:42:41;;;;;;;3.50;1.10;;;13.10;99.10;;;;;;5137857;27;20033;-58
2023/03/23 03:45:10;;;;;;;5.85;1.10;;;13.10;98.90;;;;;;5137584;27;20043;-60
2023/03/23 03:47:36;;;;;;;3.97;1.23;;;13.10;99.30;;;;;;5137704;27;20311;-59
2023/03/23 03:50:03;;;;;;;3.63;1.00;;;13.10;98.40;;;;;;5120701;27;20312;-59
2023/03/23 03:52:31;;;;;;;4.15;1.10;;;13.10;99.10;;;;;;5120764;27;20049;-58
2023/03/23 03:54:57;;;;;;;4.95;1.10;;;13.00;98.90;;;;;;5137307;27;20035;-59
2023/03/23 03:57:23;;;;;;;4.90;1.20;;;13.00;99.00;;;;;;5120308;27;20118;-59
2023/03/23 03:59:58;;;;;;;4.95;1.10;;;13.00;99.30;;;;;;5138831;27;20110;-59
2023/03/23 04:02:54;;;;;;;5.68;1.20;;;13.00;99.80;;;;;;5138714;27;20036;-58
2023/03/23 04:05:59;;;;;;;2.90;1.08;;;13.00;99.80;;;;;;5122932;27;20367;-59
2023/03/23 04:08:26;;;;;;;4.20;1.10;;;13.00;99.90;;;;;;5137471;27;20415;-62
2023/03/23 04:10:53;;;;;;;2.10;0.80;;;13.00;99.90;;;;;;5138358;27;20292;-58
2023/03/23 04:13:20;;;;;;;4.15;1.23;;;13.00;99.90;;;;;;5137562;27;20451;-58
2023/03/23 04:16:04;;;;;;;4.70;1.10;;;13.00;99.90;;;;;;5137392;27;20288;-58
2023/03/23 04:18:32;;;;;;;4.35;1.20;;;13.00;99.90;;;;;;5137414;27;20024;-58
2023/03/23 04:20:59;;;;;;;5.32;1.23;;;13.00;99.90;;;;;;5120212;28;20023;-58
2023/03/23 04:23:28;;;;;;;3.75;1.17;;;13.00;99.90;;;;;;5137204;27;20125;-59
2023/03/23 04:25:56;;;;;;;2.40;1.08;;;13.00;99.90;;;;;;5137177;27;20035;-58
2023/03/23 04:28:27;;;;;;;7.30;1.60;;;12.90;99.90;;;;;;5121204;28;20058;-58
2023/03/23 04:31:14;;;;;;;3.85;1.15;;;12.70;99.90;;;;;;5137247;27;20039;-58
2023/03/23 04:33:46;;;;;;;4.38;1.10;;;12.60;99.90;;;;;;5137307;28;20031;-59
2023/03/23 04:36:15;;;;;;;4.78;1.27;;;12.40;99.90;;;;;;5136961;28;20035;-58
2023/03/23 04:38:50;;;;;;;4.25;1.38;;;12.30;99.90;;;;;;5137108;27;20107;-59
2023/03/23 04:41:24;;;;;;;5.65;1.33;;;12.30;99.90;;;;;;5136881;28;20055;-59
2023/03/23 04:44:04;;;;;;;5.85;1.58;;;12.30;99.90;;;;;;5136985;28;20053;-59
2023/03/23 04:46:36;;;;;;;3.10;1.10;;;12.30;99.90;;;;;;5137338;28;20042;-59
2023/03/23 04:49:07;;;;;;;5.70;1.17;;;12.30;99.90;;;;;;5120836;28;20115;-60
2023/03/23 04:51:39;;;;;;;8.68;1.60;;;12.30;99.90;;;;;;5136823;28;20031;-59
2023/03/23 04:54:34;;;;;;;4.00;1.00;;;12.40;99.90;;;;;;5111096;28;20118;-58
2023/03/23 04:57:00;;;;;;;6.75;1.27;;;12.40;99.90;;;;;;5136918;28;20073;-60
2023/03/23 04:59:27;;;;;;;3.92;1.05;;;12.50;99.90;;;;;;5136816;28;20051;-59
2023/03/23 05:02:17;;;;;;;7.30;1.50;;;12.60;99.90;;;;;;5136871;28;20037;-59
2023/03/23 05:04:45;;;;;;;5.57;1.52;;;12.60;99.90;;;;;;5120088;28;20023;-60
2023/03/23 05:07:15;;;;;;;3.63;1.23;;;12.60;99.90;;;;;;5137000;27;20281;-58
2023/03/23 05:09:55;;;;;;;6.80;1.30;;;12.60;99.90;;;;;;5140655;27;20031;-59
2023/03/23 05:12:26;;;;;;;9.88;1.98;;;12.60;99.90;;;;;;5140980;27;20080;-58
2023/03/23 05:14:56;;;;;;;6.05;1.75;;;12.60;99.90;;;;;;5124042;27;20031;-58
2023/03/23 05:17:25;;;;;;;7.35;1.80;;;12.60;99.90;;;;;;5123898;27;20059;-58
2023/03/23 05:19:56;;;;;;;6.15;1.52;;;12.60;99.90;;;;;;5140593;27;20456;-59
2023/03/23 05:22:44;;;;;;;4.70;1.20;;;12.70;99.90;;;;;;5141375;27;20412;-59
2023/03/23 05:25:10;;;;;;;8.48;1.50;;;12.70;99.90;;;;;;5140287;27;20039;-60
2023/03/23 05:27:48;;;;;;;4.68;1.20;;;12.60;99.90;;;;;;5140721;27;20058;-58
2023/03/23 05:30:21;;;;;;;4.82;1.40;;;12.60;99.90;;;;;;5124237;27;20027;-59
2023/03/23 05:32:51;;;;;;;7.22;1.25;;;12.60;99.90;;;;;;5123159;27;20308;-59
2023/03/23 05:35:50;;;;;;;7.93;1.30;;;12.50;99.90;;;;;;5128854;27;20303;-58
2023/03/23 05:38:19;;;;;;;7.82;1.45;;;12.50;99.90;;;;;;5140493;27;20041;-61
2023/03/23 05:40:46;;;;;;;5.05;1.70;;;12.50;99.90;;;;;;5106193;27;20047;-59
2023/03/23 05:43:18;;;;;;;10.10;1.40;;;12.60;99.90;;;;;;5123951;27;20027;-59
2023/03/23 05:46:02;;;;;;;10.00;1.38;;;12.60;99.90;;;;;;5140814;27;20478;-59
2023/03/23 05:48:30;;;;;;;7.53;1.73;;;12.60;99.90;;;;;;5140033;27;20083;-59
2023/03/23 05:50:56;;;;;;;4.85;1.45;;;12.50;99.90;;;;;;5140664;27;20100;-59
2023/03/23 05:53:23;;;;;;;3.70;1.27;;;12.40;99.90;;;;;;5122980;27;20027;-59
2023/03/23 05:55:50;;;;;;;7.05;1.55;;;12.30;99.90;;;;;;5139726;27;20067;-59
2023/03/23 05:58:33;;;;;;;4.70;1.25;;;12.10;99.90;;;;;;5139858;27;20059;-59
2023/03/23 06:00:59;;;;;;;6.78;1.50;;;12.00;99.90;;;;;;5139484;27;20406;-58
2023/03/23 06:03:28;;;;;;;5.63;1.30;;;11.80;99.90;;;;;;5139701;27;20403;-59
2023/03/23 06:06:13;;;;;;;6.25;1.80;;;11.70;99.90;;;;;;5139481;27;20031;-59
2023/03/23 06:08:56;;;;;;;8.45;1.70;;;11.60;99.90;;;;;;5139370;27;20042;-59
2023/03/23 06:11:35;;;;;;;7.18;1.98;;;11.50;99.90;;;;;;5139338;27;20403;-59
2023/03/23 06:14:28;;;;;;;;;;;11.40;99.90;;;;;;5126763;27;20133;-59
2023/03/23 06:16:55;;;;;;;4.00;1.63;;;11.40;99.90;;;;;;5139156;27;19911;-59
2023/03/23 06:19:20;;;;;;;4.18;1.85;;;11.40;99.90;;;;;;5122063;27;20027;-57
2023/03/23 06:21:55;;;;;;;7.03;1.83;;;11.40;99.90;;;;;;5139533;27;20024;-57
2023/03/23 06:24:42;;;;;;;5.20;2.13;;;11.40;99.90;;;;;;5139248;27;20045;-55
2023/03/23 06:27:09;;;;;;;4.28;1.83;;;11.30;99.90;;;;;;5139199;27;20289;-56
2023/03/23 06:29:36;;;;;;;7.45;2.15;;;11.40;99.90;;;;;;5139180;27;20422;-57
2023/03/23 06:32:04;;;;;;;6.90;1.80;;;11.40;99.90;;;;;;5140035;27;20103;-57
2023/03/23 06:34:35;;;;;;;5.60;1.67;;;11.40;99.90;;;;;;5122154;27;20092;-57
2023/03/23 06:37:24;;;;;;;11.93;2.78;;;11.40;99.90;;;;;;5101520;27;20035;-59
2023/03/23 06:40:21;;;;;;;5.25;1.25;;;11.60;99.90;;;;;;5126589;27;20040;-58
2023/03/23 06:42:52;;;;;;;2.92;1.00;;;11.50;99.90;;;;;;5122587;27;20326;-57
2023/03/23 06:45:33;;;;;;;5.90;1.00;;;11.20;99.90;;;;;;5139797;27;20047;-58
2023/03/23 06:48:18;;;;;;;4.22;1.10;;;11.20;99.90;;;;;;5139376;27;20045;-59
2023/03/23 06:50:46;;;;;;;3.83;1.08;;;10.90;99.90;;;;;;5138680;27;20114;-58
2023/03/23 06:53:14;;;;;;;5.53;1.45;;;10.80;99.90;;;;;;5121836;27;20115;-57
2023/03/23 06:55:43;;;;;;;6.88;1.35;;;10.70;99.90;;;;;;5139575;27;20323;-58
2023/03/23 06:58:09;;;;;;;3.85;1.08;;;10.70;99.90;;;;;;5138511;27;20023;-58
2023/03/23 07:00:35;;;;;;;4.82;1.10;;;10.60;99.90;;;;;;5121209;27;20033;-58
2023/03/23 07:03:01;;;;;;;7.25;1.77;;;10.50;99.90;;;;;;5121467;27;20320;-58
2023/03/23 07:05:27;;;;;;;5.07;1.27;;;10.50;99.90;;;;;;5138344;27;20031;-58
2023/03/23 07:07:54;;;;;;;5.93;2.30;;;10.50;99.90;;;;;;5138383;27;20436;-58
2023/03/23 07:10:33;;;;;;;5.28;2.00;;;10.50;99.90;;;;;;5138489;27;20172;-58
2023/03/23 07:13:00;;;;;;;5.57;1.60;;;10.40;99.90;;;;;;5138385;27;20027;-58
2023/03/23 07:15:29;;;;;;;4.70;1.70;;;10.40;99.90;;;;;;5138164;27;20039;-58
2023/03/23 07:17:56;;;;;;;5.88;2.10;;;10.30;99.90;;;;;;5138273;27;20114;-59
2023/03/23 07:20:38;;;;;;;4.70;1.55;;;10.30;99.90;;;;;;5138205;27;20039;-58
2023/03/23 07:23:07;;;;;;;8.77;2.25;;;10.30;99.90;;;;;;5138166;27;20026;-58
2023/03/23 07:25:44;;;;;;;5.28;2.00;;;10.30;99.90;;;;;;5138030;27;20042;-58
2023/03/23 07:28:15;;;;;;;2.72;1.88;;;10.20;99.90;;;;;;5138097;27;20297;-57
2023/03/23 07:30:41;;;;;;;4.70;1.30;;;10.20;99.90;;;;;;5137342;27;20027;-60
2023/03/23 07:33:10;;;;;;;4.85;1.38;;;10.20;99.90;;;;;;5121100;27;20042;-60
2023/03/23 07:35:37;;;;;;;7.28;1.30;;;10.10;99.90;;;;;;5120728;27;20063;-61
2023/03/23 07:38:09;;;;;;;2.28;1.08;;;10.10;99.90;;;;;;5139297;27;20430;-61
2023/03/23 07:40:36;;;;;;;4.43;1.60;;;10.10;99.90;;;;;;5120764;27;20046;-60
2023/03/23 07:43:11;;;;;;;4.18;1.33;;;10.10;99.90;;;;;;5137875;27;20363;-60
2023/03/23 07:46:06;;;;;;;5.85;1.30;;;10.30;99.90;;;;;;5120655;27;20412;-61
2023/03/23 07:48:43;;;;;;;6.20;1.70;;;10.10;99.90;;;;;;5137742;27;20035;-61
2023/03/23 07:51:09;;;;;;;5.72;1.55;;;10.00;99.90;;;;;;5138525;27;20432;-60
2023/03/23 07:53:35;;;;;;;4.13;1.52;;;10.10;99.90;;;;;;5138633;27;20334;-61
2023/03/23 07:56:21;;;;;;;7.68;1.45;;;10.00;99.90;;;;;;5137445;27;20039;-61
2023/03/23 07:59:04;;;;;;;4.47;1.70;;;10.10;99.90;;;;;;5137550;27;20122;-62
2023/03/23 08:01:30;;;;;;;5.07;1.85;;;10.20;99.90;;;;;;5137561;27;20031;-62
2023/03/23 08:04:37;;;;;;;4.55;2.00;;;10.20;99.90;;;;;;5096127;28;20036;-63
2023/03/23 08:07:27;;;;;;;4.47;1.83;;;10.20;99.90;;;;;;5095842;28;20093;-62
2023/03/23 08:10:14;;;;;;;3.67;1.65;;;10.30;99.90;;;;;;5129000;27;20103;-62
2023/03/23 08:12:59;;;;;;;4.40;1.30;;;10.40;99.90;;;;;;5138016;27;20414;-62
2023/03/23 08:15:45;;;;;;;2.85;1.40;;;10.40;99.90;;;;;;5138184;27;20065;-64
2023/03/23 08:18:31;;;;;;;4.18;1.02;;;10.40;99.90;;;;;;5138321;27;20361;-61
2023/03/23 08:21:15;;;;;;;7.07;1.15;;;10.40;99.90;;;;;;5138035;27;20110;-64
2023/03/23 08:23:41;;;;;;;5.20;0.98;;;10.40;99.90;;;;;;5120609;28;20038;-63
2023/03/23 08:26:26;;;;;;;4.57;0.88;;;10.40;99.90;;;;;;5137685;27;20046;-64
2023/03/23 08:29:24;;;;;;;3.63;1.05;;;10.50;99.90;;;;;;5103718;28;20035;-62
2023/03/23 08:32:15;;;;;;;3.45;0.80;;;10.60;99.90;;;;;;5138118;27;20092;-62
2023/03/23 08:34:44;;;;;;;4.07;0.70;;;10.60;99.90;;;;;;5137836;27;20135;-61
2023/03/23 08:37:30;;;;;;;6.53;0.70;;;10.70;99.90;;;;;;5136840;28;20113;-62
2023/03/23 08:40:13;;;;;;;3.95;0.80;;;10.70;99.90;;;;;;5137574;27;20044;-62
2023/03/23 08:42:57;;;;;;;2.65;0.80;;;10.80;99.90;;;;;;5139405;27;20042;-62
2023/03/23 08:45:41;;;;;;;2.72;0.90;;;10.80;99.90;;;;;;5141539;27;20103;-61
2023/03/23 08:48:27;;;;;;;3.30;0.80;;;10.90;99.90;;;;;;5127384;27;20035;-61
2023/03/23 08:51:12;;;;;;;3.30;1.00;;;11.00;99.90;;;;;;5141953;27;20053;-62
2023/03/23 08:53:42;;;;;;;4.90;1.20;;;11.00;99.90;;;;;;5142785;27;20042;-61
2023/03/23 08:56:46;;;;;;;4.25;1.00;;;11.10;99.90;;;;;;5058945;28;20045;-60
2023/03/23 08:59:44;;;;;;;3.67;1.13;;;11.20;99.90;;;;;;5040410;28;20049;-59
2023/03/23 09:02:24;;;;;;;4.40;1.02;;;11.30;99.90;;;;;;5119073;27;20130;-63
2023/03/23 09:05:17;;;;;;;2.53;0.80;;;11.40;99.90;;;;;;5141055;27;20042;-60
2023/03/23 09:08:03;;;;;;;3.22;1.02;;;11.30;99.90;;;;;;5141090;27;20031;-60
2023/03/23 09:10:30;;;;;;;5.05;1.00;;;11.30;99.90;;;;;;5141462;27;20027;-60
2023/03/23 09:12:57;;;;;;;4.88;1.40;;;11.30;99.90;;;;;;5141675;27;20050;-60
2023/03/23 09:15:23;;;;;;;5.70;1.10;;;11.50;99.90;;;;;;5140634;27;20118;-59
2023/03/23 09:17:51;;;;;;;4.03;1.30;;;11.60;99.90;;;;;;5141335;27;20181;-60
2023/03/23 09:20:20;;;;;;;4.63;1.20;;;11.60;99.90;;;;;;5141379;27;20319;-60
2023/03/23 09:22:51;;;;;;;4.57;1.02;;;11.70;99.90;;;;;;5141233;27;20118;-59
2023/03/23 09:25:21;;;;;;;6.53;1.23;;;11.80;99.90;;;;;;5141096;27;20023;-60
2023/03/23 09:27:53;;;;;;;4.50;1.05;;;11.80;99.90;;;;;;5141207;27;20027;-59
2023/03/23 09:30:20;;;;;;;5.25;1.10;;;11.80;99.90;;;;;;5141151;27;20054;-60
2023/03/23 09:32:47;;;;;;;6.95;1.52;;;11.90;99.90;;;;;;5141202;27;20333;-61
2023/03/23 09:35:16;;;;;;;4.20;1.30;;;11.90;99.90;;;;;;5141138;27;20023;-61
2023/03/23 09:37:44;;;;;;;6.13;1.70;;;12.10;99.90;;;;;;5140274;27;20042;-60
2023/03/23 09:40:16;;;;;;;6.10;0.98;;;12.30;99.90;;;;;;5123312;27;20286;-61
2023/03/23 09:43:00;;;;;;;5.30;1.20;;;12.20;99.90;;;;;;5141252;27;20046;-60
2023/03/23 09:45:30;;;;;;;8.35;1.48;;;12.20;99.90;;;;;;5140911;27;20034;-60
2023/03/23 09:48:04;;;;;;;4.22;1.13;;;12.30;99.90;;;;;;5141024;27;20045;-61
2023/03/23 09:50:32;;;;;;;8.18;1.50;;;12.40;99.90;;;;;;5140775;27;20033;-60
2023/03/23 09:53:01;;;;;;;5.70;1.20;;;12.60;99.90;;;;;;5122845;27;20284;-60
2023/03/23 09:55:28;;;;;;;6.00;1.40;;;12.70;99.90;;;;;;5140424;27;20067;-61
2023/03/23 09:58:09;;;;;;;5.95;1.08;;;12.80;99.90;;;;;;5140749;27;20326;-60
2023/03/23 10:00:44;;;;;;;5.53;1.25;;;12.80;99.90;;;;;;5140625;27;20391;-59
2023/03/23 10:03:19;;;;;;;5.25;1.15;;;13.00;99.90;;;;;;5140663;27;20261;-58
2023/03/23 10:05:49;;;;;;;3.55;0.90;;;13.40;99.90;;;;;;5140665;27;20098;-60
2023/03/23 10:08:18;;;;;;;4.53;1.10;;;13.40;99.90;;;;;;5140387;27;20024;-60
2023/03/23 10:10:53;;;;;;;2.17;0.90;;;13.60;99.90;;;;;;5140291;27;20062;-59
2023/03/23 10:13:55;;;;;;;4.97;1.00;;;13.80;99.90;;;;;;5140330;27;20027;-58
2023/03/23 10:16:25;;;;;;;4.28;1.00;;;14.10;98.60;;;;;;5140216;27;20415;-59
2023/03/23 10:19:04;;;;;;;3.20;1.05;;;13.90;97.80;;;;;;5139518;27;20113;-58
2023/03/23 10:21:31;;;;;;;4.38;1.30;;;13.90;99.90;;;;;;5139357;27;20053;-60
2023/03/23 10:24:00;;;;;;;4.25;1.30;;;14.20;98.40;;;;;;5140194;27;20019;-59
2023/03/23 10:26:26;;;;;;;4.75;1.50;;;13.90;99.90;;;;;;5140051;27;20038;-59
2023/03/23 10:28:57;;;;;;;5.80;1.02;;;13.60;99.90;;;;;;5139381;27;20031;-59
2023/03/23 10:31:33;;;;;;;3.00;1.15;;;13.70;99.90;;;;;;5139990;27;20118;-59
2023/03/23 10:34:10;;;;;;;3.72;0.90;;;13.80;99.90;;;;;;5140551;27;20059;-59
2023/03/23 10:37:04;;;;;;;5.35;1.13;;;13.80;99.90;;;;;;5140335;27;20292;-58
2023/03/23 10:39:37;;;;;;;3.47;0.93;;;14.20;99.30;;;;;;5139267;27;20293;-58
2023/03/23 10:42:06;;;;;;;4.53;1.15;;;14.10;98.30;;;;;;5138898;27;20047;-58
2023/03/23 10:44:33;;;;;;;4.00;1.42;;;13.90;99.90;;;;;;5140168;27;20031;-59
2023/03/23 10:47:03;;;;;;;3.17;1.35;;;14.20;99.30;;;;;;5139647;27;20031;-58
2023/03/23 10:49:40;;;;;;;3.38;1.30;;;14.10;96.60;;;;;;5139596;27;20299;-61
2023/03/23 10:52:26;;;;;;;5.05;1.40;;;14.10;93.60;;;;;;5138781;27;20019;-59
2023/03/23 10:55:03;;;;;;;8.90;1.55;;;14.00;95.50;;;;;;5139799;27;20027;-59
2023/03/23 10:57:33;;;;;;;5.20;1.60;;;13.80;95.90;;;;;;5139786;27;20055;-58
2023/03/23 11:00:06;;;;;;;8.60;1.75;;;13.80;96.70;;;;;;5139449;27;20058;-59
2023/03/23 11:02:42;;;;;;;5.88;1.55;;;14.00;97.30;;;;;;5139340;27;20028;-59
2023/03/23 11:05:19;;;;;;;5.35;1.58;;;14.00;95.90;;;;;;5120524;28;20027;-59
2023/03/23 11:07:52;;;;;;;7.80;1.40;;;14.10;97.10;;;;;;5139390;27;20031;-58
2023/03/23 11:10:38;;;;;;;4.90;1.40;;;14.20;94.60;;;;;;5139465;27;20027;-59
2023/03/23 11:13:10;;;;;;;5.80;1.40;;;14.30;94.30;;;;;;5139112;27;20319;-58
2023/03/23 11:15:47;;;;;;;4.53;1.52;;;14.40;93.60;;;;;;5139032;27;20040;-60
2023/03/23 11:18:39;;;;;;;4.55;1.63;;;14.60;92.60;;;;;;5138947;27;20030;-61
2023/03/23 11:21:07;;;;;;;5.47;1.30;;;14.50;85.70;;;;;;5138977;27;20334;-58
2023/03/23 11:23:35;;;;;;;5.90;1.88;;;14.30;93.90;;;;;;5139214;27;20384;-59
2023/03/23 11:26:28;;;;;;;3.65;1.33;;;14.50;92.80;;;;;;5138982;27;20308;-61
2023/03/23 11:29:10;;;;;;;3.65;1.25;;;14.70;87.70;;;;;;5138886;27;20035;-62
2023/03/23 11:31:44;;;;;;;4.55;1.20;;;14.90;80.90;;;;;;5138047;27;20035;-58
2023/03/23 11:34:16;;;;;;;4.47;1.52;;;14.90;86.90;;;;;;5138699;27;20080;-59
2023/03/23 11:36:54;;;;;;;7.30;1.75;;;15.20;76.80;;;;;;5138497;27;20037;-59
2023/03/23 11:39:33;;;;;;;6.95;1.60;;;15.40;64.30;;;;;;5138725;27;20599;-60
2023/03/23 11:42:11;;;;;;;6.63;1.58;;;15.60;65.60;;;;;;5138452;27;20043;-60
2023/03/23 11:44:45;;;;;;;5.45;1.75;;;15.70;52.80;;;;;;5138527;27;20103;-59
2023/03/23 11:47:27;;;;;;;6.75;1.60;;;16.20;44.40;;;;;;5138442;27;20031;-56
2023/03/23 11:50:03;;;;;;;4.70;1.42;;;16.90;37.80;;;;;;5138824;27;20027;-57
2023/03/23 11:53:08;;;;;;;5.57;1.88;;;17.30;24.70;;;;;;5138236;27;20023;-58
2023/03/23 11:55:37;;;;;;;7.65;1.80;;;17.30;22.70;;;;;;5136986;27;20376;-58
2023/03/23 11:58:13;;;;;;;7.07;1.70;;;17.40;17.80;;;;;;5137443;27;20023;-58
2023/03/23 12:00:56;;;;;;;4.40;2.05;;;17.10;18.50;;;;;;5138319;27;20029;-57
2023/03/23 12:03:35;;;;;;;5.72;1.90;;;16.50;18.70;;;;;;5138190;27;20296;-59
2023/03/23 12:06:24;;;;;;;5.75;1.90;;;16.20;14.00;;;;;;5138122;27;20034;-58
2023/03/23 12:08:57;;;;;;;8.88;1.88;;;16.30;17.80;;;;;;5129591;27;20047;-57
2023/03/23 12:11:37;;;;;;;4.05;1.60;;;17.40;1.00;;;;;;5138134;27;20045;-58
2023/03/23 12:14:30;;;;;;;6.85;1.80;;;17.20;1.00;;;;;;5138073;27;20023;-59
2023/03/23 12:17:30;;;;;;;7.47;1.80;;;17.70;1.00;;;;;;5138289;27;20119;-58
2023/03/23 12:20:19;;;;;;;6.20;1.63;;;18.00;1.00;;;;;;5138282;27;20292;-58
2023/03/23 12:23:15;;;;;;;5.90;1.63;;;17.70;1.00;;;;;;5129544;27;20054;-57
2023/03/23 12:25:59;;;;;;;6.85;1.50;;;17.70;1.00;;;;;;5110748;27;20051;-59
2023/03/23 12:28:37;;;;;;;8.32;1.90;;;17.30;1.00;;;;;;5137133;27;20351;-58
2023/03/23 12:31:10;;;;;;;8.15;1.92;;;17.40;1.00;;;;;;5137041;27;20041;-58
2023/03/23 12:33:46;;;;;;;5.70;1.33;;;17.10;1.00;;;;;;5137886;27;20128;-58
2023/03/23 12:36:27;;;;;;;10.38;2.22;;;16.40;1.00;;;;;;5137791;27;20106;-58
2023/03/23 12:39:25;;;;;;;8.85;2.00;;;16.00;13.30;;;;;;5137759;27;20027;-58
2023/03/23 12:42:16;;;;;;;8.32;1.80;;;16.00;25.20;;;;;;5137591;27;20077;-59
2023/03/23 12:44:46;;;;;;;8.07;1.52;;;16.10;20.50;;;;;;5136984;28;20027;-58
2023/03/23 12:47:31;;;;;;;7.47;1.70;;;16.10;20.70;;;;;;5137632;27;20019;-60
2023/03/23 12:50:25;;;;;;;4.80;1.45;;;16.70;1.00;;;;;;5137662;28;20042;-59
2023/03/23 12:53:15;;;;;;;6.55;1.52;;;17.40;1.00;;;;;;5136830;28;20028;-58
2023/03/23 12:55:51;;;;;;;6.50;1.20;;;17.80;1.00;;;;;;5119678;28;20027;-63
2023/03/23 12:58:30;;;;;;;6.68;1.60;;;17.20;1.00;;;;;;5136844;27;20039;-59
2023/03/23 13:01:21;;;;;;;5.07;1.27;;;16.70;1.00;;;;;;5136785;28;20032;-59
2023/03/23 13:03:57;;;;;;;6.10;1.45;;;17.50;1.00;;;;;;5136741;28;20028;-61
2023/03/23 13:06:41;;;;;;;8.40;1.20;;;17.50;1.00;;;;;;5137293;27;20023;-59
2023/03/23 13:09:16;;;;;;;4.07;1.48;;;17.30;1.00;;;;;;5137368;27;20031;-58
2023/03/23 13:11:43;;;;;;;4.85;1.55;;;16.80;1.00;;;;;;5137524;27;20031;-59
2023/03/23 13:14:40;;;;;;;5.93;1.50;;;16.60;1.00;;;;;;5136758;28;20035;-60
2023/03/23 13:17:44;;;;;;;6.22;1.48;;;16.50;1.00;;;;;;5136654;28;20031;-59
2023/03/23 13:20:22;;;;;;;5.22;1.60;;;16.60;1.00;;;;;;5137523;27;20043;-63
2023/03/23 13:22:54;;;;;;;7.43;1.50;;;16.50;1.00;;;;;;5136772;28;20035;-59
2023/03/23 13:25:28;;;;;;;6.53;1.30;;;16.40;1.00;;;;;;5137466;27;20034;-59
2023/03/23 13:28:00;;;;;;;5.25;1.70;;;16.40;1.00;;;;;;5137341;27;20083;-57